LiveATC.Net - Listen to live air traffic control over the Internet!


ICAO: LFBU  IATA: ANG   Airport: Angouleme Airport
City: Angouleme
Country: France   Continent: Europe
LFBU METAR Weather: LFBU 132330Z AUTO 27013KT 8000 -RA ////// 21/19 Q1012
LFBU Flight Activity (FlightAware)

Bordeaux Control
Feed Status: DOWN
Last heard on: 2022-08-13 18:50:22 (0 days 5 hours 21 minutes ago)
Archive Access: Bordeaux Control
FacilityFrequency
Air to Air123.450
Bordeaux Control BN FL<300127.675
Bordeaux Control L3 FL>300134.250
Bordeaux Control R2 FL>300133.575
Emergency/Guard121.500
NOTE: In case of garbled sound, please refresh the player.

NOTICE

Unauthorized use prohibited. See LiveATC.net Terms of Service


Airport/ARTCC Code
Frequency Search
(e.g., 124.400, 128.75)
Site-wide search
 


Browse Feeds
Top 50 Feeds
HF Oceanic Feeds
Coverage Map
Bad Weather Areas

LiveATC FAQ
Offer LiveATC feed
Contact LiveATC.net
Press Inquiries

LiveATC on iPhone
LiveATC on Android

LiveATC Mobile
(Mobile browser)

ATC Audio Archives
Interesting Recordings

LiveATC Forums


Home Page
About LiveATC.net


Terms of Use
Privacy Policy

AIRMETs/SIGMETs

FAA Airport Status
NAS Status
Arrival Demand


Server Software By:
Icecast.org
Liquidsoap